sensor_id;sensor_type;location;lat;lon;timestamp;P1;durP1;ratioP1;P2;durP2;ratioP2
25962;SDS011;13760;52.588;13.406;2022-12-07T00:01:09;35.63;;;16.00;;
25962;SDS011;13760;52.588;13.406;2022-12-07T00:03:37;33.92;;;15.30;;
25962;SDS011;13760;52.588;13.406;2022-12-07T00:06:04;28.58;;;14.15;;
25962;SDS011;13760;52.588;13.406;2022-12-07T00:08:31;34.40;;;15.38;;
25962;SDS011;13760;52.588;13.406;2022-12-07T00:11:02;30.98;;;14.38;;
25962;SDS011;13760;52.588;13.406;2022-12-07T00:13:29;35.22;;;15.50;;
25962;SDS011;13760;52.588;13.406;2022-12-07T00:15:55;32.45;;;14.85;;
25962;SDS011;13760;52.588;13.406;2022-12-07T00:18:20;28.48;;;14.32;;
25962;SDS011;13760;52.588;13.406;2022-12-07T00:20:46;29.75;;;14.52;;
25962;SDS011;13760;52.588;13.406;2022-12-07T00:23:11;31.02;;;15.20;;
25962;SDS011;13760;52.588;13.406;2022-12-07T00:25:37;33.95;;;14.70;;
25962;SDS011;13760;52.588;13.406;2022-12-07T00:28:02;30.35;;;14.75;;
25962;SDS011;13760;52.588;13.406;2022-12-07T00:30:28;32.00;;;15.70;;
25962;SDS011;13760;52.588;13.406;2022-12-07T00:32:53;31.63;;;14.77;;
25962;SDS011;13760;52.588;13.406;2022-12-07T00:35:19;29.65;;;14.80;;
25962;SDS011;13760;52.588;13.406;2022-12-07T00:37:44;28.08;;;14.48;;
25962;SDS011;13760;52.588;13.406;2022-12-07T00:40:10;29.27;;;15.15;;
25962;SDS011;13760;52.588;13.406;2022-12-07T00:42:36;28.65;;;14.60;;
25962;SDS011;13760;52.588;13.406;2022-12-07T00:45:01;29.20;;;14.93;;
25962;SDS011;13760;52.588;13.406;2022-12-07T00:47:27;27.77;;;15.15;;
25962;SDS011;13760;52.588;13.406;2022-12-07T00:49:53;29.75;;;15.07;;
25962;SDS011;13760;52.588;13.406;2022-12-07T00:52:18;27.05;;;14.45;;
25962;SDS011;13760;52.588;13.406;2022-12-07T00:54:43;28.00;;;15.00;;
25962;SDS011;13760;52.588;13.406;2022-12-07T00:57:09;30.63;;;15.23;;
25962;SDS011;13760;52.588;13.406;2022-12-07T00:59:35;30.25;;;15.70;;
25962;SDS011;13760;52.588;13.406;2022-12-07T01:02:00;28.10;;;14.68;;
25962;SDS011;13760;52.588;13.406;2022-12-07T01:04:26;29.50;;;13.68;;
25962;SDS011;13760;52.588;13.406;2022-12-07T01:06:51;25.15;;;13.85;;
25962;SDS011;13760;52.588;13.406;2022-12-07T01:09:17;24.80;;;13.30;;
25962;SDS011;13760;52.588;13.406;2022-12-07T01:11:42;26.35;;;13.85;;
25962;SDS011;13760;52.588;13.406;2022-12-07T01:14:08;26.00;;;14.43;;
25962;SDS011;13760;52.588;13.406;2022-12-07T01:16:34;29.63;;;14.73;;
25962;SDS011;13760;52.588;13.406;2022-12-07T01:19:00;28.80;;;14.70;;
25962;SDS011;13760;52.588;13.406;2022-12-07T01:21:27;30.75;;;14.98;;
25962;SDS011;13760;52.588;13.406;2022-12-07T01:23:56;28.75;;;14.38;;
25962;SDS011;13760;52.588;13.406;2022-12-07T01:26:22;27.00;;;14.23;;
25962;SDS011;13760;52.588;13.406;2022-12-07T01:28:49;28.98;;;14.52;;
25962;SDS011;13760;52.588;13.406;2022-12-07T01:31:17;24.88;;;14.38;;
25962;SDS011;13760;52.588;13.406;2022-12-07T01:33:45;27.77;;;14.52;;
25962;SDS011;13760;52.588;13.406;2022-12-07T01:36:16;26.08;;;14.00;;
25962;SDS011;13760;52.588;13.406;2022-12-07T01:38:43;26.60;;;14.00;;
25962;SDS011;13760;52.588;13.406;2022-12-07T01:41:10;28.67;;;13.98;;
25962;SDS011;13760;52.588;13.406;2022-12-07T01:43:36;26.65;;;13.55;;
25962;SDS011;13760;52.588;13.406;2022-12-07T01:46:22;27.85;;;13.90;;
25962;SDS011;13760;52.588;13.406;2022-12-07T01:48:47;25.70;;;13.50;;
25962;SDS011;13760;52.588;13.406;2022-12-07T01:51:13;23.73;;;12.98;;
25962;SDS011;13760;52.588;13.406;2022-12-07T01:53:41;24.35;;;13.43;;
25962;SDS011;13760;52.588;13.406;2022-12-07T01:56:10;24.20;;;12.82;;
25962;SDS011;13760;52.588;13.406;2022-12-07T01:58:48;29.95;;;14.25;;
25962;SDS011;13760;52.588;13.406;2022-12-07T02:01:14;24.15;;;13.02;;
25962;SDS011;13760;52.588;13.406;2022-12-07T02:03:40;26.70;;;13.63;;
25962;SDS011;13760;52.588;13.406;2022-12-07T02:06:07;23.98;;;13.68;;
25962;SDS011;13760;52.588;13.406;2022-12-07T02:08:35;24.77;;;13.07;;
25962;SDS011;13760;52.588;13.406;2022-12-07T02:11:01;25.05;;;13.45;;
25962;SDS011;13760;52.588;13.406;2022-12-07T02:13:29;31.65;;;13.93;;
25962;SDS011;13760;52.588;13.406;2022-12-07T02:24:02;19.65;;;11.20;;
25962;SDS011;13760;52.588;13.406;2022-12-07T02:27:21;18.08;;;10.55;;
25962;SDS011;13760;52.588;13.406;2022-12-07T02:30:03;19.58;;;11.20;;
25962;SDS011;13760;52.588;13.406;2022-12-07T02:32:48;20.35;;;11.70;;
25962;SDS011;13760;52.588;13.406;2022-12-07T02:35:30;22.00;;;11.15;;
25962;SDS011;13760;52.588;13.406;2022-12-07T02:38:18;19.33;;;10.55;;
25962;SDS011;13760;52.588;13.406;2022-12-07T02:41:02;20.15;;;11.32;;
25962;SDS011;13760;52.588;13.406;2022-12-07T02:43:39;20.75;;;11.13;;
25962;SDS011;13760;52.588;13.406;2022-12-07T02:46:08;16.95;;;9.95;;
25962;SDS011;13760;52.588;13.406;2022-12-07T02:48:38;23.58;;;11.52;;
25962;SDS011;13760;52.588;13.406;2022-12-07T02:51:05;23.52;;;12.00;;
25962;SDS011;13760;52.588;13.406;2022-12-07T03:01:59;21.40;;;12.20;;
25962;SDS011;13760;52.588;13.406;2022-12-07T03:04:52;21.17;;;12.18;;
25962;SDS011;13760;52.588;13.406;2022-12-07T03:19:28;27.42;;;14.43;;
25962;SDS011;13760;52.588;13.406;2022-12-07T03:21:58;24.92;;;13.43;;
25962;SDS011;13760;52.588;13.406;2022-12-07T03:24:29;27.90;;;14.52;;
25962;SDS011;13760;52.588;13.406;2022-12-07T03:27:05;33.05;;;15.50;;
25962;SDS011;13760;52.588;13.406;2022-12-07T03:29:42;40.05;;;16.75;;
25962;SDS011;13760;52.588;13.406;2022-12-07T03:32:30;33.85;;;16.60;;
25962;SDS011;13760;52.588;13.406;2022-12-07T03:35:00;31.65;;;16.58;;
25962;SDS011;13760;52.588;13.406;2022-12-07T03:37:49;40.47;;;17.17;;
25962;SDS011;13760;52.588;13.406;2022-12-07T03:40:37;36.97;;;17.25;;
25962;SDS011;13760;52.588;13.406;2022-12-07T03:43:08;44.85;;;17.33;;
25962;SDS011;13760;52.588;13.406;2022-12-07T03:45:38;43.97;;;18.60;;
25962;SDS011;13760;52.588;13.406;2022-12-07T03:48:08;46.45;;;19.38;;
25962;SDS011;13760;52.588;13.406;2022-12-07T03:51:12;45.97;;;19.98;;
25962;SDS011;13760;52.588;13.406;2022-12-07T03:53:52;51.17;;;20.20;;
25962;SDS011;13760;52.588;13.406;2022-12-07T03:56:23;50.75;;;21.08;;
25962;SDS011;13760;52.588;13.406;2022-12-07T03:58:51;52.00;;;21.15;;
25962;SDS011;13760;52.588;13.406;2022-12-07T04:01:18;49.63;;;20.67;;
25962;SDS011;13760;52.588;13.406;2022-12-07T04:03:44;49.85;;;21.00;;
25962;SDS011;13760;52.588;13.406;2022-12-07T04:06:09;52.47;;;22.00;;
25962;SDS011;13760;52.588;13.406;2022-12-07T04:08:35;57.53;;;21.90;;
25962;SDS011;13760;52.588;13.406;2022-12-07T04:11:01;51.28;;;21.20;;
25962;SDS011;13760;52.588;13.406;2022-12-07T04:13:27;58.10;;;22.70;;
25962;SDS011;13760;52.588;13.406;2022-12-07T04:15:52;57.15;;;23.33;;
25962;SDS011;13760;52.588;13.406;2022-12-07T04:18:18;62.63;;;23.02;;
25962;SDS011;13760;52.588;13.406;2022-12-07T04:20:43;56.00;;;23.52;;
25962;SDS011;13760;52.588;13.406;2022-12-07T04:23:10;68.10;;;24.58;;
25962;SDS011;13760;52.588;13.406;2022-12-07T04:25:36;62.10;;;24.02;;
25962;SDS011;13760;52.588;13.406;2022-12-07T04:28:01;59.85;;;22.80;;
25962;SDS011;13760;52.588;13.406;2022-12-07T04:30:27;61.65;;;23.42;;
25962;SDS011;13760;52.588;13.406;2022-12-07T04:32:52;63.13;;;24.17;;
25962;SDS011;13760;52.588;13.406;2022-12-07T04:35:18;62.42;;;23.70;;
25962;SDS011;13760;52.588;13.406;2022-12-07T04:37:43;66.13;;;25.70;;
25962;SDS011;13760;52.588;13.406;2022-12-07T04:40:09;73.85;;;25.30;;
25962;SDS011;13760;52.588;13.406;2022-12-07T04:42:36;72.22;;;25.70;;
25962;SDS011;13760;52.588;13.406;2022-12-07T04:45:02;86.10;;;25.25;;
25962;SDS011;13760;52.588;13.406;2022-12-07T04:47:28;69.40;;;27.17;;
25962;SDS011;13760;52.588;13.406;2022-12-07T04:49:54;67.00;;;26.58;;
25962;SDS011;13760;52.588;13.406;2022-12-07T04:52:20;66.35;;;25.33;;
25962;SDS011;13760;52.588;13.406;2022-12-07T04:54:45;76.72;;;27.27;;
25962;SDS011;13760;52.588;13.406;2022-12-07T04:57:11;70.60;;;26.60;;
25962;SDS011;13760;52.588;13.406;2022-12-07T04:59:36;69.72;;;27.42;;
25962;SDS011;13760;52.588;13.406;2022-12-07T05:02:02;76.13;;;27.17;;
25962;SDS011;13760;52.588;13.406;2022-12-07T05:04:27;79.95;;;28.13;;
25962;SDS011;13760;52.588;13.406;2022-12-07T05:06:53;91.10;;;30.05;;
25962;SDS011;13760;52.588;13.406;2022-12-07T05:09:18;85.35;;;32.05;;
25962;SDS011;13760;52.588;13.406;2022-12-07T05:11:44;90.95;;;31.77;;
25962;SDS011;13760;52.588;13.406;2022-12-07T05:14:14;96.85;;;31.90;;
25962;SDS011;13760;52.588;13.406;2022-12-07T05:16:42;79.97;;;30.50;;
25962;SDS011;13760;52.588;13.406;2022-12-07T05:19:09;88.65;;;31.42;;
25962;SDS011;13760;52.588;13.406;2022-12-07T05:21:36;96.63;;;32.13;;
25962;SDS011;13760;52.588;13.406;2022-12-07T05:24:02;95.25;;;33.55;;
25962;SDS011;13760;52.588;13.406;2022-12-07T05:26:28;108.05;;;33.90;;
25962;SDS011;13760;52.588;13.406;2022-12-07T05:28:54;95.90;;;33.22;;
25962;SDS011;13760;52.588;13.406;2022-12-07T05:31:21;100.00;;;33.88;;
25962;SDS011;13760;52.588;13.406;2022-12-07T05:33:47;95.80;;;32.70;;
25962;SDS011;13760;52.588;13.406;2022-12-07T05:36:13;105.68;;;35.13;;
25962;SDS011;13760;52.588;13.406;2022-12-07T05:38:38;104.00;;;34.25;;
25962;SDS011;13760;52.588;13.406;2022-12-07T05:41:05;104.70;;;35.10;;
25962;SDS011;13760;52.588;13.406;2022-12-07T05:43:33;96.53;;;34.17;;
25962;SDS011;13760;52.588;13.406;2022-12-07T05:45:59;99.20;;;35.28;;
25962;SDS011;13760;52.588;13.406;2022-12-07T05:48:24;100.55;;;35.28;;
25962;SDS011;13760;52.588;13.406;2022-12-07T05:50:51;105.88;;;35.20;;
25962;SDS011;13760;52.588;13.406;2022-12-07T05:53:17;119.00;;;35.95;;
25962;SDS011;13760;52.588;13.406;2022-12-07T05:55:44;104.85;;;34.97;;
25962;SDS011;13760;52.588;13.406;2022-12-07T05:58:09;102.88;;;34.85;;
25962;SDS011;13760;52.588;13.406;2022-12-07T06:00:54;108.97;;;34.90;;
25962;SDS011;13760;52.588;13.406;2022-12-07T06:03:20;102.80;;;35.40;;
25962;SDS011;13760;52.588;13.406;2022-12-07T06:05:45;120.30;;;36.22;;
25962;SDS011;13760;52.588;13.406;2022-12-07T06:08:11;101.55;;;36.15;;
25962;SDS011;13760;52.588;13.406;2022-12-07T06:10:36;104.00;;;34.67;;
25962;SDS011;13760;52.588;13.406;2022-12-07T06:13:02;103.35;;;35.47;;
25962;SDS011;13760;52.588;13.406;2022-12-07T06:15:27;117.05;;;37.33;;
25962;SDS011;13760;52.588;13.406;2022-12-07T06:17:53;98.80;;;33.90;;
25962;SDS011;13760;52.588;13.406;2022-12-07T06:20:18;100.55;;;33.60;;
25962;SDS011;13760;52.588;13.406;2022-12-07T06:22:44;99.45;;;33.80;;
25962;SDS011;13760;52.588;13.406;2022-12-07T06:25:09;107.75;;;34.08;;
25962;SDS011;13760;52.588;13.406;2022-12-07T06:27:35;113.10;;;35.20;;
25962;SDS011;13760;52.588;13.406;2022-12-07T06:30:01;104.28;;;33.53;;
25962;SDS011;13760;52.588;13.406;2022-12-07T06:32:31;108.53;;;34.10;;
25962;SDS011;13760;52.588;13.406;2022-12-07T06:34:57;101.20;;;32.70;;
25962;SDS011;13760;52.588;13.406;2022-12-07T06:37:23;97.10;;;33.45;;
25962;SDS011;13760;52.588;13.406;2022-12-07T06:39:48;108.43;;;34.22;;
25962;SDS011;13760;52.588;13.406;2022-12-07T06:42:14;115.65;;;33.25;;
25962;SDS011;13760;52.588;13.406;2022-12-07T06:44:39;112.63;;;34.20;;
25962;SDS011;13760;52.588;13.406;2022-12-07T06:47:05;108.18;;;32.45;;
25962;SDS011;13760;52.588;13.406;2022-12-07T06:49:32;100.07;;;32.55;;
25962;SDS011;13760;52.588;13.406;2022-12-07T06:51:58;114.60;;;33.20;;
25962;SDS011;13760;52.588;13.406;2022-12-07T06:54:24;103.00;;;33.13;;
25962;SDS011;13760;52.588;13.406;2022-12-07T06:56:49;101.70;;;33.38;;
25962;SDS011;13760;52.588;13.406;2022-12-07T06:59:15;102.30;;;33.20;;
25962;SDS011;13760;52.588;13.406;2022-12-07T07:01:41;124.57;;;33.95;;
25962;SDS011;13760;52.588;13.406;2022-12-07T07:04:06;132.18;;;34.42;;
25962;SDS011;13760;52.588;13.406;2022-12-07T07:06:32;108.95;;;33.67;;
25962;SDS011;13760;52.588;13.406;2022-12-07T07:08:58;113.38;;;33.45;;
25962;SDS011;13760;52.588;13.406;2022-12-07T07:11:23;102.65;;;33.78;;
25962;SDS011;13760;52.588;13.406;2022-12-07T07:13:49;102.10;;;33.63;;
25962;SDS011;13760;52.588;13.406;2022-12-07T07:16:14;103.55;;;33.63;;
25962;SDS011;13760;52.588;13.406;2022-12-07T07:18:40;120.50;;;35.67;;
25962;SDS011;13760;52.588;13.406;2022-12-07T07:21:05;121.32;;;33.97;;
25962;SDS011;13760;52.588;13.406;2022-12-07T07:23:31;118.13;;;34.72;;
25962;SDS011;13760;52.588;13.406;2022-12-07T07:25:56;109.07;;;32.95;;
25962;SDS011;13760;52.588;13.406;2022-12-07T07:28:22;110.57;;;33.60;;
25962;SDS011;13760;52.588;13.406;2022-12-07T07:30:47;107.60;;;33.58;;
25962;SDS011;13760;52.588;13.406;2022-12-07T07:33:13;95.07;;;32.78;;
25962;SDS011;13760;52.588;13.406;2022-12-07T07:35:39;98.50;;;31.45;;
25962;SDS011;13760;52.588;13.406;2022-12-07T07:38:04;90.55;;;32.00;;
25962;SDS011;13760;52.588;13.406;2022-12-07T07:40:31;83.07;;;30.45;;
25962;SDS011;13760;52.588;13.406;2022-12-07T07:42:56;89.07;;;30.55;;
25962;SDS011;13760;52.588;13.406;2022-12-07T07:45:23;78.65;;;29.33;;
25962;SDS011;13760;52.588;13.406;2022-12-07T07:47:50;78.15;;;27.95;;
25962;SDS011;13760;52.588;13.406;2022-12-07T07:50:16;77.75;;;27.55;;
25962;SDS011;13760;52.588;13.406;2022-12-07T07:52:41;78.97;;;26.83;;
25962;SDS011;13760;52.588;13.406;2022-12-07T07:55:07;64.22;;;24.20;;
25962;SDS011;13760;52.588;13.406;2022-12-07T07:57:37;55.08;;;21.73;;
25962;SDS011;13760;52.588;13.406;2022-12-07T08:00:12;41.55;;;18.20;;
25962;SDS011;13760;52.588;13.406;2022-12-07T08:02:41;50.58;;;19.20;;
25962;SDS011;13760;52.588;13.406;2022-12-07T08:05:08;42.08;;;17.48;;
25962;SDS011;13760;52.588;13.406;2022-12-07T08:07:34;46.75;;;18.08;;
25962;SDS011;13760;52.588;13.406;2022-12-07T08:09:59;37.03;;;16.60;;
25962;SDS011;13760;52.588;13.406;2022-12-07T08:12:25;35.90;;;15.93;;
25962;SDS011;13760;52.588;13.406;2022-12-07T08:14:50;41.03;;;16.27;;
25962;SDS011;13760;52.588;13.406;2022-12-07T08:17:16;33.90;;;15.30;;
25962;SDS011;13760;52.588;13.406;2022-12-07T08:19:42;29.17;;;14.15;;
25962;SDS011;13760;52.588;13.406;2022-12-07T08:22:07;28.65;;;13.90;;
25962;SDS011;13760;52.588;13.406;2022-12-07T08:24:33;27.60;;;12.60;;
25962;SDS011;13760;52.588;13.406;2022-12-07T08:26:59;22.00;;;12.65;;
25962;SDS011;13760;52.588;13.406;2022-12-07T08:29:25;27.80;;;12.77;;
25962;SDS011;13760;52.588;13.406;2022-12-07T08:31:50;21.05;;;11.60;;
25962;SDS011;13760;52.588;13.406;2022-12-07T08:34:16;25.90;;;11.45;;
25962;SDS011;13760;52.588;13.406;2022-12-07T08:36:41;19.58;;;11.25;;
25962;SDS011;13760;52.588;13.406;2022-12-07T08:39:07;21.80;;;11.48;;
25962;SDS011;13760;52.588;13.406;2022-12-07T08:41:33;21.45;;;10.75;;
25962;SDS011;13760;52.588;13.406;2022-12-07T08:43:58;16.48;;;9.77;;
25962;SDS011;13760;52.588;13.406;2022-12-07T08:46:30;15.65;;;8.73;;
25962;SDS011;13760;52.588;13.406;2022-12-07T08:49:09;16.00;;;9.23;;
25962;SDS011;13760;52.588;13.406;2022-12-07T08:51:39;18.83;;;9.20;;
25962;SDS011;13760;52.588;13.406;2022-12-07T08:54:06;18.70;;;9.20;;
25962;SDS011;13760;52.588;13.406;2022-12-07T08:56:35;14.65;;;8.45;;
25962;SDS011;13760;52.588;13.406;2022-12-07T08:59:01;17.58;;;9.25;;
25962;SDS011;13760;52.588;13.406;2022-12-07T09:01:28;14.60;;;7.88;;
25962;SDS011;13760;52.588;13.406;2022-12-07T09:03:54;11.48;;;7.35;;
25962;SDS011;13760;52.588;13.406;2022-12-07T09:06:19;14.18;;;7.40;;
25962;SDS011;13760;52.588;13.406;2022-12-07T09:08:46;16.35;;;7.93;;
25962;SDS011;13760;52.588;13.406;2022-12-07T09:11:14;12.13;;;7.70;;
25962;SDS011;13760;52.588;13.406;2022-12-07T09:13:39;12.90;;;7.22;;
25962;SDS011;13760;52.588;13.406;2022-12-07T09:16:05;10.35;;;5.72;;
25962;SDS011;13760;52.588;13.406;2022-12-07T09:18:31;11.68;;;6.53;;
25962;SDS011;13760;52.588;13.406;2022-12-07T09:20:56;7.28;;;5.68;;
25962;SDS011;13760;52.588;13.406;2022-12-07T09:23:22;5.82;;;4.60;;
25962;SDS011;13760;52.588;13.406;2022-12-07T09:25:48;6.18;;;4.55;;
25962;SDS011;13760;52.588;13.406;2022-12-07T09:28:13;5.18;;;3.60;;
25962;SDS011;13760;52.588;13.406;2022-12-07T09:30:39;6.20;;;3.53;;
25962;SDS011;13760;52.588;13.406;2022-12-07T09:33:09;5.88;;;3.72;;
25962;SDS011;13760;52.588;13.406;2022-12-07T09:35:35;4.28;;;3.20;;
25962;SDS011;13760;52.588;13.406;2022-12-07T09:38:00;5.13;;;3.80;;
25962;SDS011;13760;52.588;13.406;2022-12-07T09:40:26;3.85;;;3.40;;
25962;SDS011;13760;52.588;13.406;2022-12-07T09:42:53;4.93;;;3.42;;
25962;SDS011;13760;52.588;13.406;2022-12-07T09:45:24;5.70;;;3.22;;
25962;SDS011;13760;52.588;13.406;2022-12-07T09:48:00;4.20;;;3.45;;
25962;SDS011;13760;52.588;13.406;2022-12-07T09:50:27;5.38;;;3.50;;
25962;SDS011;13760;52.588;13.406;2022-12-07T09:52:54;5.78;;;4.15;;
25962;SDS011;13760;52.588;13.406;2022-12-07T09:55:29;5.65;;;3.88;;
25962;SDS011;13760;52.588;13.406;2022-12-07T09:57:56;6.55;;;4.05;;
25962;SDS011;13760;52.588;13.406;2022-12-07T10:00:23;4.53;;;3.80;;
25962;SDS011;13760;52.588;13.406;2022-12-07T10:05:44;5.63;;;3.90;;
25962;SDS011;13760;52.588;13.406;2022-12-07T10:08:14;4.93;;;3.42;;
25962;SDS011;13760;52.588;13.406;2022-12-07T10:10:42;7.03;;;3.60;;
25962;SDS011;13760;52.588;13.406;2022-12-07T10:13:09;6.85;;;3.33;;
25962;SDS011;13760;52.588;13.406;2022-12-07T10:15:56;4.97;;;3.50;;
25962;SDS011;13760;52.588;13.406;2022-12-07T10:18:28;3.92;;;3.10;;
25962;SDS011;13760;52.588;13.406;2022-12-07T10:21:10;4.20;;;3.15;;
25962;SDS011;13760;52.588;13.406;2022-12-07T10:26:37;3.45;;;3.00;;
25962;SDS011;13760;52.588;13.406;2022-12-07T10:31:42;4.28;;;2.92;;
25962;SDS011;13760;52.588;13.406;2022-12-07T10:34:43;3.35;;;2.70;;
25962;SDS011;13760;52.588;13.406;2022-12-07T10:39:44;3.33;;;2.70;;
25962;SDS011;13760;52.588;13.406;2022-12-07T11:01:19;13.30;;;4.35;;
25962;SDS011;13760;52.588;13.406;2022-12-07T11:04:06;6.53;;;4.20;;
25962;SDS011;13760;52.588;13.406;2022-12-07T11:07:27;5.25;;;4.50;;
25962;SDS011;13760;52.588;13.406;2022-12-07T11:16:07;7.25;;;5.18;;
25962;SDS011;13760;52.588;13.406;2022-12-07T11:21:30;6.75;;;5.03;;
25962;SDS011;13760;52.588;13.406;2022-12-07T11:26:47;7.90;;;4.45;;
25962;SDS011;13760;52.588;13.406;2022-12-07T11:29:42;6.25;;;4.00;;
25962;SDS011;13760;52.588;13.406;2022-12-07T11:32:17;8.68;;;4.60;;
25962;SDS011;13760;52.588;13.406;2022-12-07T11:34:59;9.93;;;5.05;;
25962;SDS011;13760;52.588;13.406;2022-12-07T11:37:40;6.33;;;4.30;;
25962;SDS011;13760;52.588;13.406;2022-12-07T11:40:26;7.40;;;4.85;;
25962;SDS011;13760;52.588;13.406;2022-12-07T11:42:57;7.20;;;4.88;;
25962;SDS011;13760;52.588;13.406;2022-12-07T11:45:37;8.65;;;4.90;;
25962;SDS011;13760;52.588;13.406;2022-12-07T11:48:09;7.68;;;4.90;;
25962;SDS011;13760;52.588;13.406;2022-12-07T11:50:57;9.50;;;4.97;;
25962;SDS011;13760;52.588;13.406;2022-12-07T11:53:27;7.70;;;4.78;;
25962;SDS011;13760;52.588;13.406;2022-12-07T11:58:42;13.63;;;5.72;;
25962;SDS011;13760;52.588;13.406;2022-12-07T12:06:35;11.50;;;5.55;;
25962;SDS011;13760;52.588;13.406;2022-12-07T12:09:06;8.55;;;4.45;;
25962;SDS011;13760;52.588;13.406;2022-12-07T12:14:11;12.35;;;5.10;;
25962;SDS011;13760;52.588;13.406;2022-12-07T12:16:51;8.13;;;5.18;;
25962;SDS011;13760;52.588;13.406;2022-12-07T12:19:32;6.68;;;5.00;;
25962;SDS011;13760;52.588;13.406;2022-12-07T12:22:07;11.15;;;5.90;;
25962;SDS011;13760;52.588;13.406;2022-12-07T12:24:41;8.55;;;4.82;;
25962;SDS011;13760;52.588;13.406;2022-12-07T12:27:15;11.57;;;5.35;;
25962;SDS011;13760;52.588;13.406;2022-12-07T12:29:50;12.68;;;5.55;;
25962;SDS011;13760;52.588;13.406;2022-12-07T12:35:21;11.23;;;5.13;;
25962;SDS011;13760;52.588;13.406;2022-12-07T12:40:55;8.05;;;4.95;;
25962;SDS011;13760;52.588;13.406;2022-12-07T12:48:54;10.98;;;5.10;;
25962;SDS011;13760;52.588;13.406;2022-12-07T12:51:39;11.10;;;4.32;;
25962;SDS011;13760;52.588;13.406;2022-12-07T12:54:14;10.27;;;4.60;;
25962;SDS011;13760;52.588;13.406;2022-12-07T12:56:46;13.90;;;4.95;;
25962;SDS011;13760;52.588;13.406;2022-12-07T13:01:46;9.23;;;4.07;;
25962;SDS011;13760;52.588;13.406;2022-12-07T13:04:14;8.32;;;3.17;;
25962;SDS011;13760;52.588;13.406;2022-12-07T13:06:53;10.27;;;3.03;;
25962;SDS011;13760;52.588;13.406;2022-12-07T13:09:20;7.78;;;3.38;;
25962;SDS011;13760;52.588;13.406;2022-12-07T13:12:02;10.02;;;3.42;;
25962;SDS011;13760;52.588;13.406;2022-12-07T13:17:04;10.63;;;2.88;;
25962;SDS011;13760;52.588;13.406;2022-12-07T13:27:58;8.27;;;3.40;;
25962;SDS011;13760;52.588;13.406;2022-12-07T13:30:32;6.72;;;3.63;;
25962;SDS011;13760;52.588;13.406;2022-12-07T13:33:08;14.70;;;3.50;;
25962;SDS011;13760;52.588;13.406;2022-12-07T13:35:35;11.45;;;3.05;;
25962;SDS011;13760;52.588;13.406;2022-12-07T13:38:13;9.57;;;3.72;;
25962;SDS011;13760;52.588;13.406;2022-12-07T13:40:58;12.20;;;3.20;;
25962;SDS011;13760;52.588;13.406;2022-12-07T13:44:33;7.57;;;3.35;;
25962;SDS011;13760;52.588;13.406;2022-12-07T13:46:44;9.65;;;3.45;;
25962;SDS011;13760;52.588;13.406;2022-12-07T13:49:19;12.73;;;4.95;;
25962;SDS011;13760;52.588;13.406;2022-12-07T13:51:47;12.52;;;3.60;;
25962;SDS011;13760;52.588;13.406;2022-12-07T13:54:14;6.10;;;3.25;;
25962;SDS011;13760;52.588;13.406;2022-12-07T13:56:40;10.25;;;3.33;;
25962;SDS011;13760;52.588;13.406;2022-12-07T13:59:12;6.82;;;2.65;;
25962;SDS011;13760;52.588;13.406;2022-12-07T14:01:40;8.25;;;2.55;;
25962;SDS011;13760;52.588;13.406;2022-12-07T14:06:58;8.85;;;2.80;;
25962;SDS011;13760;52.588;13.406;2022-12-07T14:09:26;11.55;;;2.67;;
25962;SDS011;13760;52.588;13.406;2022-12-07T14:11:53;7.82;;;2.70;;
25962;SDS011;13760;52.588;13.406;2022-12-07T14:14:21;10.90;;;2.80;;
25962;SDS011;13760;52.588;13.406;2022-12-07T14:17:12;12.55;;;3.70;;
25962;SDS011;13760;52.588;13.406;2022-12-07T14:22:44;7.95;;;3.40;;
25962;SDS011;13760;52.588;13.406;2022-12-07T14:27:38;8.63;;;2.67;;
25962;SDS011;13760;52.588;13.406;2022-12-07T14:30:04;18.15;;;3.33;;
25962;SDS011;13760;52.588;13.406;2022-12-07T14:32:31;9.80;;;2.92;;
25962;SDS011;13760;52.588;13.406;2022-12-07T14:34:58;5.43;;;2.20;;
25962;SDS011;13760;52.588;13.406;2022-12-07T14:37:25;11.52;;;2.92;;
25962;SDS011;13760;52.588;13.406;2022-12-07T14:39:52;7.47;;;2.63;;
25962;SDS011;13760;52.588;13.406;2022-12-07T14:42:19;8.38;;;2.90;;
25962;SDS011;13760;52.588;13.406;2022-12-07T14:44:46;10.90;;;3.28;;
25962;SDS011;13760;52.588;13.406;2022-12-07T14:47:12;9.60;;;3.58;;
25962;SDS011;13760;52.588;13.406;2022-12-07T14:49:37;12.80;;;3.10;;
25962;SDS011;13760;52.588;13.406;2022-12-07T14:52:03;9.45;;;3.40;;
25962;SDS011;13760;52.588;13.406;2022-12-07T14:54:30;9.85;;;3.60;;
25962;SDS011;13760;52.588;13.406;2022-12-07T14:56:57;15.77;;;4.30;;
25962;SDS011;13760;52.588;13.406;2022-12-07T14:59:22;12.05;;;4.30;;
25962;SDS011;13760;52.588;13.406;2022-12-07T15:01:48;17.95;;;5.40;;
25962;SDS011;13760;52.588;13.406;2022-12-07T15:04:13;14.38;;;6.35;;
25962;SDS011;13760;52.588;13.406;2022-12-07T15:06:39;19.42;;;7.25;;
25962;SDS011;13760;52.588;13.406;2022-12-07T15:09:05;12.95;;;5.70;;
25962;SDS011;13760;52.588;13.406;2022-12-07T15:11:31;14.85;;;5.93;;
25962;SDS011;13760;52.588;13.406;2022-12-07T15:13:56;13.73;;;5.28;;
25962;SDS011;13760;52.588;13.406;2022-12-07T15:16:36;13.75;;;5.30;;
25962;SDS011;13760;52.588;13.406;2022-12-07T15:19:14;14.00;;;5.47;;
25962;SDS011;13760;52.588;13.406;2022-12-07T15:21:41;13.73;;;5.18;;
25962;SDS011;13760;52.588;13.406;2022-12-07T15:24:08;12.15;;;4.22;;
25962;SDS011;13760;52.588;13.406;2022-12-07T15:26:34;10.70;;;3.97;;
25962;SDS011;13760;52.588;13.406;2022-12-07T15:29:00;8.90;;;3.97;;
25962;SDS011;13760;52.588;13.406;2022-12-07T15:31:25;13.60;;;4.07;;
25962;SDS011;13760;52.588;13.406;2022-12-07T15:33:51;10.60;;;3.90;;
25962;SDS011;13760;52.588;13.406;2022-12-07T15:36:21;7.25;;;3.25;;
25962;SDS011;13760;52.588;13.406;2022-12-07T15:38:48;11.27;;;4.18;;
25962;SDS011;13760;52.588;13.406;2022-12-07T15:41:14;10.73;;;3.42;;
25962;SDS011;13760;52.588;13.406;2022-12-07T15:43:40;10.25;;;2.70;;
25962;SDS011;13760;52.588;13.406;2022-12-07T15:46:29;14.07;;;3.05;;
25962;SDS011;13760;52.588;13.406;2022-12-07T15:48:55;14.68;;;3.00;;
25962;SDS011;13760;52.588;13.406;2022-12-07T15:51:21;10.77;;;3.13;;
25962;SDS011;13760;52.588;13.406;2022-12-07T15:53:47;9.52;;;3.13;;
25962;SDS011;13760;52.588;13.406;2022-12-07T15:56:12;13.20;;;3.10;;
25962;SDS011;13760;52.588;13.406;2022-12-07T15:58:38;9.65;;;2.90;;
25962;SDS011;13760;52.588;13.406;2022-12-07T16:01:10;9.15;;;3.30;;
25962;SDS011;13760;52.588;13.406;2022-12-07T16:03:36;14.57;;;4.22;;
25962;SDS011;13760;52.588;13.406;2022-12-07T16:06:02;12.73;;;3.58;;
25962;SDS011;13760;52.588;13.406;2022-12-07T16:08:27;15.45;;;3.60;;
25962;SDS011;13760;52.588;13.406;2022-12-07T16:10:53;8.13;;;3.28;;
25962;SDS011;13760;52.588;13.406;2022-12-07T16:13:18;11.48;;;3.70;;
25962;SDS011;13760;52.588;13.406;2022-12-07T16:15:44;12.00;;;3.80;;
25962;SDS011;13760;52.588;13.406;2022-12-07T16:18:09;8.35;;;2.85;;
25962;SDS011;13760;52.588;13.406;2022-12-07T16:20:35;12.32;;;3.47;;
25962;SDS011;13760;52.588;13.406;2022-12-07T16:23:01;10.23;;;3.30;;